Time;durP1;ratioP1;P1;durP2;ratioP2;P2;SDS_P1;SDS_P2;PMS_P1;PMS_P2;Temp;Humidity;BMP_temperature;BMP_pressure;BME280_temperature;BME280_humidity;BME280_pressure;Samples;Min_cycle;Max_cycle;Signal;HPM_P1;HPM_P2
2021/09/21 00:01:28;;;;;;;13.50;8.93;;;;;;;13.32;72.31;96860.31;5090286;28;20055;-75
2021/09/21 00:03:54;;;;;;;14.15;9.30;;;;;;;13.38;71.65;96860.94;5089871;28;20823;-74
2021/09/21 00:06:21;;;;;;;13.52;8.75;;;;;;;13.38;70.57;96866.41;5089828;28;20051;-72
2021/09/21 00:08:47;;;;;;;16.08;9.35;;;;;;;13.35;71.26;96869.78;5089978;28;20052;-74
2021/09/21 00:11:14;;;;;;;15.00;9.88;;;;;;;13.34;72.22;96865.44;5089913;28;20052;-73
2021/09/21 00:13:41;;;;;;;13.05;9.55;;;;;;;13.33;73.09;96864.63;5090122;28;20048;-74
2021/09/21 00:16:08;;;;;;;13.43;9.18;;;;;;;13.32;73.50;96866.56;5089856;28;20052;-73
2021/09/21 00:18:35;;;;;;;12.25;8.60;;;;;;;13.36;73.06;96865.91;5089550;28;20047;-74
2021/09/21 00:21:03;;;;;;;16.25;9.15;;;;;;;13.38;72.49;96866.41;5089385;28;20410;-73
2021/09/21 00:23:30;;;;;;;13.70;8.63;;;;;;;13.37;72.27;96867.53;5090028;28;20058;-73
2021/09/21 00:25:58;;;;;;;15.75;10.05;;;;;;;13.36;72.23;96858.50;5089835;28;20422;-73
2021/09/21 00:28:25;;;;;;;12.45;8.68;;;;;;;13.36;71.92;96852.22;5089388;28;20094;-73
2021/09/21 00:30:52;;;;;;;13.88;9.68;;;;;;;13.38;71.79;96855.47;5089060;28;20055;-72
2021/09/21 00:33:23;;;;;;;13.52;9.43;;;;;;;13.43;70.97;96852.56;5089192;28;20052;-73
2021/09/21 00:35:52;;;;;;;14.40;9.02;;;;;;;13.45;71.46;96855.78;5089369;28;20366;-74
2021/09/21 00:38:21;;;;;;;14.50;8.70;;;;;;;13.47;72.20;96870.75;5089195;28;20160;-74
2021/09/21 00:40:47;;;;;;;15.15;10.00;;;;;;;13.45;73.35;96870.25;5089418;28;20639;-73
2021/09/21 00:43:20;;;;;;;15.10;9.27;;;;;;;13.39;74.06;96873.47;5088638;28;20558;-74
2021/09/21 00:45:47;;;;;;;14.80;9.68;;;;;;;13.31;74.81;96878.66;5089581;28;20057;-74
2021/09/21 00:48:13;;;;;;;14.63;9.60;;;;;;;13.23;74.93;96879.44;5088281;28;20044;-75
2021/09/21 00:50:41;;;;;;;15.80;9.60;;;;;;;13.23;74.92;96879.44;5089444;28;20054;-73
2021/09/21 00:53:08;;;;;;;12.02;9.07;;;;;;;13.20;74.48;96876.50;5088772;28;20055;-74
2021/09/21 00:55:34;;;;;;;15.55;10.20;;;;;;;13.18;75.09;96879.56;5089406;28;20414;-73
2021/09/21 00:58:01;;;;;;;13.35;9.73;;;;;;;13.23;74.32;96882.19;5088990;28;20048;-73
2021/09/21 01:00:28;;;;;;;15.88;10.00;;;;;;;13.24;74.25;96881.03;5089058;28;20620;-73
2021/09/21 01:02:54;;;;;;;13.32;9.35;;;;;;;13.25;74.04;96888.13;5089067;28;20048;-74
2021/09/21 01:05:21;;;;;;;17.10;10.93;;;;;;;13.24;74.92;96878.31;5088678;28;20491;-73
2021/09/21 01:07:50;;;;;;;15.65;9.77;;;;;;;13.21;74.90;96884.44;5088808;28;20055;-74
2021/09/21 01:10:18;;;;;;;13.80;9.73;;;;;;;13.18;74.82;96876.84;5088491;28;20051;-73
2021/09/21 01:12:45;;;;;;;15.88;9.73;;;;;;;13.17;74.64;96877.97;5089264;28;20051;-74
2021/09/21 01:15:13;;;;;;;17.05;9.57;;;;;;;13.22;74.37;96877.84;5088749;28;20043;-74
2021/09/21 01:17:40;;;;;;;17.92;10.35;;;;;;;13.21;74.17;96870.75;5088939;28;20048;-75
2021/09/21 01:20:10;;;;;;;15.75;10.27;;;;;;;13.22;74.43;96872.38;5086942;28;20418;-74
2021/09/21 01:22:38;;;;;;;14.52;8.95;;;;;;;13.30;73.78;96873.47;5070481;28;20422;-73
2021/09/21 01:25:05;;;;;;;16.13;10.65;;;;;;;13.35;72.63;96873.31;5068002;28;20526;-75
2021/09/21 01:27:32;;;;;;;16.23;9.93;;;;;;;13.31;73.56;96878.66;5068270;28;20059;-73
2021/09/21 01:29:59;;;;;;;16.10;10.43;;;;;;;13.27;74.08;96887.81;5068080;28;20044;-74
2021/09/21 01:32:25;;;;;;;14.45;9.68;;;;;;;13.23;74.55;96882.19;5067823;28;20051;-73
2021/09/21 01:34:52;;;;;;;14.48;10.05;;;;;;;13.21;75.95;96889.91;5068557;28;20048;-73
2021/09/21 01:37:19;;;;;;;17.48;10.82;;;;;;;13.21;75.66;96884.44;5067922;28;20051;-74
2021/09/21 01:39:47;;;;;;;15.10;9.27;;;;;;;13.21;75.49;96889.91;5068166;28;20044;-76
2021/09/21 01:42:14;;;;;;;16.33;9.85;;;;;;;13.21;75.66;96884.44;5067366;28;20057;-73
2021/09/21 01:44:41;;;;;;;14.32;9.45;;;;;;;13.31;75.12;96895.06;5068054;28;20056;-74
2021/09/21 01:47:07;;;;;;;15.50;9.70;;;;;;;13.32;74.54;96888.44;5069581;28;20507;-73
2021/09/21 01:49:41;;;;;;;13.90;9.68;;;;;;;13.34;74.28;96898.25;5087893;28;20498;-73
2021/09/21 01:52:11;;;;;;;13.23;8.70;;;;;;;13.35;73.97;96905.34;5087245;28;20052;-73
2021/09/21 01:55:05;;;;;;;14.40;9.65;;;;;;;13.34;74.13;96899.06;5084445;28;20151;-74
2021/09/21 02:00:17;;;;;;;14.45;9.10;;;;;;;13.29;74.65;96902.75;5087275;28;19976;-74
2021/09/21 02:02:44;;;;;;;14.65;9.85;;;;;;;13.23;75.11;96904.06;5087553;28;20048;-73
2021/09/21 02:05:11;;;;;;;13.18;9.10;;;;;;;13.22;75.45;96904.38;5087376;28;20044;-74
2021/09/21 02:07:37;;;;;;;12.73;8.40;;;;;;;13.23;75.81;96906.78;5087706;28;20051;-74
2021/09/21 02:10:05;;;;;;;12.90;9.38;;;;;;;13.22;75.93;96902.44;5087318;28;20514;-73
2021/09/21 02:12:33;;;;;;;18.25;10.05;;;;;;;13.21;76.31;96908.22;5087802;28;20055;-74
2021/09/21 02:15:00;;;;;;;12.18;9.05;;;;;;;13.25;76.29;96903.72;5087735;28;20051;-73
2021/09/21 02:17:28;;;;;;;13.30;10.10;;;;;;;13.34;76.18;96906.47;5087507;28;20052;-73
2021/09/21 02:19:54;;;;;;;14.93;9.70;;;;;;;13.38;75.95;96910.97;5087715;28;20055;-74
2021/09/21 02:22:21;;;;;;;15.10;9.70;;;;;;;13.38;75.82;96910.97;5087101;28;20055;-74
2021/09/21 02:24:47;;;;;;;14.45;9.45;;;;;;;13.32;75.69;96913.06;5087279;28;20055;-73
2021/09/21 02:27:14;;;;;;;15.48;9.65;;;;;;;13.21;75.88;96905.47;5087365;28;20051;-75
2021/09/21 02:29:42;;;;;;;13.93;9.93;;;;;;;13.16;75.05;96903.72;5087893;28;20048;-73
2021/09/21 02:32:09;;;;;;;14.50;10.32;;;;;;;13.17;75.23;96915.44;5087266;28;20055;-73
2021/09/21 02:34:35;;;;;;;15.95;10.35;;;;;;;13.20;74.98;96915.59;5091643;28;20515;-73
2021/09/21 02:37:02;;;;;;;14.73;10.73;;;;;;;13.19;74.73;96918.66;5091345;28;20055;-72
2021/09/21 02:39:28;;;;;;;15.32;10.68;;;;;;;13.18;74.01;96912.38;5091964;28;20056;-73
2021/09/21 02:41:55;;;;;;;15.15;10.45;;;;;;;13.16;73.45;96914.66;5091760;28;20040;-72
2021/09/21 02:44:21;;;;;;;16.25;10.98;;;;;;;13.14;73.84;96919.63;5091063;28;20483;-74
2021/09/21 02:46:51;;;;;;;16.52;11.18;;;;;;;13.15;74.37;96928.63;5091554;28;20499;-73
2021/09/21 02:49:17;;;;;;;17.60;10.98;;;;;;;13.18;74.07;96923.31;5091170;28;20052;-73
2021/09/21 02:51:44;;;;;;;16.20;10.80;;;;;;;13.20;74.09;96929.25;5091536;28;20060;-73
2021/09/21 02:54:11;;;;;;;15.32;10.65;;;;;;;13.23;73.67;96928.66;5091077;28;20048;-73
2021/09/21 02:56:37;;;;;;;17.38;10.85;;;;;;;13.23;73.33;96925.94;5091739;28;20056;-74
2021/09/21 02:59:04;;;;;;;16.20;10.77;;;;;;;13.22;73.52;96927.06;5091065;28;20063;-73
2021/09/21 03:01:30;;;;;;;15.05;10.65;;;;;;;13.19;73.75;96935.88;5091419;28;20056;-73
2021/09/21 03:04:02;;;;;;;16.58;11.00;;;;;;;13.16;74.22;96930.25;5091086;28;20044;-73
2021/09/21 03:06:32;;;;;;;17.55;10.95;;;;;;;13.17;74.43;96927.19;5090862;28;20058;-75
2021/09/21 03:09:06;;;;;;;16.40;11.27;;;;;;;13.20;74.52;96926.53;5091106;28;20055;-73
2021/09/21 03:11:39;;;;;;;16.90;11.45;;;;;;;13.22;74.23;96929.00;5090739;28;20055;-74
2021/09/21 03:17:15;;;;;;;19.33;11.23;;;;;;;13.22;74.50;96929.78;5091011;28;20055;-73
2021/09/21 03:19:43;;;;;;;15.10;10.77;;;;;;;13.29;73.54;96935.59;5090896;28;20043;-74
2021/09/21 03:22:10;;;;;;;16.90;10.40;;;;;;;13.28;73.18;96939.44;5090806;28;20414;-75
2021/09/21 03:24:36;;;;;;;15.52;10.38;;;;;;;13.29;73.36;96938.31;5090752;28;20525;-75
2021/09/21 03:27:03;;;;;;;15.60;10.30;;;;;;;13.27;73.17;96937.84;5090437;28;20040;-73
2021/09/21 03:29:29;;;;;;;17.20;10.82;;;;;;;13.28;73.11;96944.91;5090481;28;20719;-75
2021/09/21 03:31:56;;;;;;;15.13;10.73;;;;;;;13.29;73.12;96945.72;5090882;28;20040;-74
2021/09/21 03:34:22;;;;;;;15.15;10.48;;;;;;;13.25;73.69;96951.03;5090563;28;20036;-76
2021/09/21 03:36:50;;;;;;;15.88;10.90;;;;;;;13.23;73.92;96936.88;5090663;28;20054;-72
2021/09/21 03:39:17;;;;;;;18.25;11.35;;;;;;;13.17;73.77;96943.59;5090163;28;20507;-75
2021/09/21 03:41:43;;;;;;;17.02;11.23;;;;;;;13.17;74.39;96938.13;5090512;28;20071;-74
2021/09/21 03:44:10;;;;;;;20.00;11.98;;;;;;;13.16;74.39;96943.94;5089578;28;20055;-75
2021/09/21 03:46:36;;;;;;;19.05;11.77;;;;;;;13.16;74.33;96947.47;5090661;28;20044;-74
2021/09/21 03:49:03;;;;;;;18.90;12.45;;;;;;;13.16;74.44;96946.66;5090043;28;20945;-74
2021/09/21 03:51:30;;;;;;;19.08;12.82;;;;;;;13.15;74.51;96945.81;5090514;28;20056;-75
2021/09/21 03:53:58;;;;;;;19.05;11.45;;;;;;;13.16;74.31;96936.53;5090227;28;20138;-75
2021/09/21 03:56:25;;;;;;;16.90;12.00;;;;;;;13.17;74.24;96938.13;5090096;28;20040;-75
2021/09/21 03:58:51;;;;;;;18.60;12.95;;;;;;;13.17;74.08;96942.78;5090277;28;20052;-75
2021/09/21 04:01:18;;;;;;;15.15;11.45;;;;;;;13.18;73.09;96934.25;5089929;28;20048;-75
2021/09/21 04:03:44;;;;;;;19.42;12.77;;;;;;;13.17;73.85;96938.13;5090163;28;20058;-76
2021/09/21 04:06:10;;;;;;;19.55;11.98;;;;;;;13.20;73.93;96948.41;5089710;28;20055;-74
2021/09/21 04:08:37;;;;;;;16.70;11.60;;;;;;;13.24;73.20;96949.41;5090219;28;20057;-76
2021/09/21 04:11:05;;;;;;;18.67;12.43;;;;;;;13.25;73.25;96951.03;5089671;28;20051;-74
2021/09/21 04:13:31;;;;;;;17.08;12.02;;;;;;;13.25;73.00;96950.22;5090269;28;20506;-74
2021/09/21 04:15:58;;;;;;;19.50;12.98;;;;;;;13.25;72.78;96951.03;5089344;28;20514;-76
2021/09/21 04:18:24;;;;;;;18.02;12.18;;;;;;;13.23;72.95;96953.28;5089529;28;20040;-74
2021/09/21 04:20:51;;;;;;;15.35;11.38;;;;;;;13.20;73.28;96947.59;5089791;28;20052;-74
2021/09/21 04:23:17;;;;;;;18.88;12.27;;;;;;;13.16;73.63;96955.66;5089172;28;20051;-73
2021/09/21 04:25:43;;;;;;;18.02;13.05;;;;;;;13.11;73.66;96961.28;5089340;28;20048;-72
2021/09/21 04:28:11;;;;;;;21.23;12.77;;;;;;;13.09;73.79;96959.97;5089351;28;20068;-74
2021/09/21 04:30:39;;;;;;;17.60;12.27;;;;;;;13.05;74.31;96973.50;5089750;28;20426;-72
2021/09/21 04:33:06;;;;;;;18.83;12.02;;;;;;;13.04;73.94;96980.06;5089071;28;20141;-72
2021/09/21 04:35:32;;;;;;;19.85;12.45;;;;;;;12.98;74.47;96973.16;5089982;28;20055;-72
2021/09/21 04:37:59;;;;;;;17.05;11.98;;;;;;;12.96;75.04;96975.41;5089377;28;20507;-74
2021/09/21 04:40:25;;;;;;;16.13;10.73;;;;;;;12.98;75.12;96984.09;5088944;28;20052;-74
2021/09/21 04:42:52;;;;;;;20.35;10.95;;;;;;;12.97;75.35;96990.69;5089282;28;20052;-73
2021/09/21 04:45:20;;;;;;;17.63;12.00;;;;;;;12.98;75.50;96998.56;5088756;28;20048;-73
2021/09/21 04:47:46;;;;;;;15.15;10.85;;;;;;;12.98;75.26;97005.94;5089449;28;20048;-73
2021/09/21 04:50:13;;;;;;;14.73;11.10;;;;;;;12.95;75.68;96999.22;5088647;28;20047;-73
2021/09/21 04:52:40;;;;;;;16.90;11.93;;;;;;;12.93;75.68;97006.09;5089271;28;20074;-75
2021/09/21 04:55:08;;;;;;;16.45;12.00;;;;;;;12.95;75.46;97007.41;5087814;28;20422;-73
2021/09/21 04:57:35;;;;;;;18.02;11.50;;;;;;;12.98;75.91;97011.41;5089385;28;20051;-74
2021/09/21 05:00:03;;;;;;;17.80;12.52;;;;;;;12.95;75.65;97007.41;5088992;28;20533;-72
2021/09/21 05:02:31;;;;;;;15.68;11.48;;;;;;;12.95;76.23;97017.53;5089037;28;20169;-72
2021/09/21 05:04:57;;;;;;;18.67;12.02;;;;;;;12.99;75.30;97010.28;5088790;28;20048;-75
2021/09/21 05:07:24;;;;;;;16.95;11.73;;;;;;;12.97;74.71;97015.28;5088266;28;20055;-74
2021/09/21 05:09:50;;;;;;;16.95;12.55;;;;;;;12.93;74.88;97019.75;5089004;28;20066;-73
2021/09/21 05:12:17;;;;;;;19.42;12.52;;;;;;;12.94;74.90;97019.44;5088210;28;20048;-73
2021/09/21 05:14:43;;;;;;;19.45;13.18;;;;;;;12.97;73.95;97031.69;5088986;28;20067;-74
2021/09/21 05:17:10;;;;;;;17.90;12.82;;;;;;;12.92;73.97;97027.16;5088275;28;20052;-73
2021/09/21 05:19:38;;;;;;;19.17;12.77;;;;;;;12.92;74.40;97029.09;5088946;28;20062;-74
2021/09/21 05:22:04;;;;;;;20.33;13.27;;;;;;;12.94;73.76;97026.84;5088098;28;20052;-76
2021/09/21 05:24:30;;;;;;;21.38;12.20;;;;;;;12.92;74.10;97037.28;5088700;28;20103;-74
2021/09/21 05:26:57;;;;;;;18.48;12.57;;;;;;;12.94;74.56;97033.09;5088478;28;20514;-73
2021/09/21 05:29:23;;;;;;;16.77;11.55;;;;;;;12.98;73.48;97034.09;5088246;28;20510;-73
2021/09/21 05:31:50;;;;;;;18.70;12.38;;;;;;;12.99;73.13;97045.84;5088569;28;20055;-75
2021/09/21 05:34:16;;;;;;;19.13;13.27;;;;;;;12.97;72.88;97059.03;5087874;28;20051;-75
2021/09/21 05:36:44;;;;;;;25.98;14.23;;;;;;;12.97;73.57;97056.28;5088555;28;20055;-75
2021/09/21 05:39:14;;;;;;;16.67;12.07;;;;;;;12.99;73.43;97063.03;5087802;28;20047;-73
2021/09/21 05:41:41;;;;;;;17.52;11.95;;;;;;;13.00;73.28;97058.41;5088165;28;20144;-75
2021/09/21 05:44:07;;;;;;;23.67;11.98;;;;;;;12.97;73.23;97065.28;5087535;28;20048;-76
2021/09/21 05:46:34;;;;;;;17.58;11.95;;;;;;;12.98;73.82;97066.91;5088226;28;20051;-75
2021/09/21 05:49:00;;;;;;;17.50;11.85;;;;;;;12.97;73.65;97075.44;5088015;28;20051;-74
2021/09/21 05:51:27;;;;;;;15.38;12.05;;;;;;;12.94;73.98;97073.31;5088072;28;20040;-75
2021/09/21 05:53:55;;;;;;;21.63;13.63;;;;;;;12.91;74.86;97077.50;5086901;28;20604;-74
2021/09/21 05:56:22;;;;;;;19.20;11.98;;;;;;;12.95;74.23;97077.69;5087490;28;20052;-75
2021/09/21 05:58:48;;;;;;;20.35;12.65;;;;;;;12.95;74.08;97094.09;5087637;28;20051;-74
2021/09/21 06:01:15;;;;;;;17.33;12.20;;;;;;;12.97;74.07;97102.75;5087684;28;20047;-75
2021/09/21 06:03:42;;;;;;;21.35;12.55;;;;;;;12.98;74.00;97101.63;5087676;28;20823;-76
2021/09/21 06:06:08;;;;;;;17.23;11.93;;;;;;;12.97;74.28;97109.03;5087139;28;20047;-74
2021/09/21 06:08:35;;;;;;;18.63;11.57;;;;;;;12.99;74.21;97101.31;5087695;28;20685;-75
2021/09/21 06:11:03;;;;;;;21.60;12.90;;;;;;;13.03;74.30;97106.97;5087294;28;20047;-72
2021/09/21 06:13:29;;;;;;;21.45;12.60;;;;;;;13.03;74.10;97118.69;5087792;28;20063;-74
2021/09/21 06:15:56;;;;;;;16.40;12.00;;;;;;;13.01;74.42;97110.03;5088084;28;20044;-75
2021/09/21 06:18:22;;;;;;;15.63;12.20;;;;;;;13.07;73.83;97125.16;5087166;28;20043;-75
2021/09/21 06:20:49;;;;;;;16.33;11.70;;;;;;;13.11;73.38;97124.53;5087643;28;20044;-75
2021/09/21 06:23:17;;;;;;;18.52;13.27;;;;;;;13.00;72.84;97124.81;5087063;28;20048;-75
2021/09/21 06:25:44;;;;;;;21.20;12.63;;;;;;;12.98;73.95;97131.72;5087797;28;20062;-74
2021/09/21 06:28:12;;;;;;;16.67;11.93;;;;;;;13.00;74.36;97129.47;5087437;28;20044;-73
2021/09/21 06:30:38;;;;;;;16.25;11.32;;;;;;;13.04;73.19;97131.25;5087730;28;20047;-75
2021/09/21 06:33:05;;;;;;;14.88;11.50;;;;;;;13.04;74.01;97133.97;5087311;28;20052;-74
2021/09/21 06:35:31;;;;;;;15.95;11.88;;;;;;;13.03;74.58;97135.09;5087585;28;20044;-75
2021/09/21 06:37:58;;;;;;;18.38;12.23;;;;;;;13.06;73.98;97133.69;5087758;28;20056;-74
2021/09/21 06:40:26;;;;;;;20.75;12.27;;;;;;;13.09;73.78;97138.50;5086986;28;20048;-73
2021/09/21 06:42:53;;;;;;;17.80;12.20;;;;;;;13.06;74.51;97144.63;5087524;28;20101;-74
2021/09/21 06:45:20;;;;;;;16.40;12.45;;;;;;;13.06;74.76;97144.63;5087011;28;20069;-75
2021/09/21 06:47:47;;;;;;;20.25;13.32;;;;;;;13.09;74.68;97154.13;5087549;28;20059;-77
2021/09/21 06:50:14;;;;;;;20.55;12.80;;;;;;;13.15;74.59;97153.66;5087053;28;20049;-74
2021/09/21 06:52:41;;;;;;;16.77;11.75;;;;;;;13.20;73.48;97156.25;5086273;28;20056;-74
2021/09/21 06:55:09;;;;;;;17.77;13.00;;;;;;;13.17;73.50;97158.84;5086573;28;20048;-74
2021/09/21 06:57:36;;;;;;;17.95;12.50;;;;;;;13.18;73.50;97158.50;5087410;28;20163;-75
2021/09/21 07:00:03;;;;;;;16.60;12.43;;;;;;;13.26;73.85;97156.97;5086074;28;20048;-74
2021/09/21 07:02:30;;;;;;;15.70;12.25;;;;;;;13.29;73.13;97159.88;5085869;28;20506;-73
2021/09/21 07:04:57;;;;;;;18.00;13.15;;;;;;;13.32;73.09;97152.97;5086586;28;20044;-74
2021/09/21 07:07:23;;;;;;;17.75;12.60;;;;;;;13.37;72.60;97155.56;5086208;28;20065;-74
2021/09/21 07:09:50;;;;;;;16.80;11.75;;;;;;;13.42;72.27;97154.63;5087172;28;20509;-75
2021/09/21 07:12:16;;;;;;;21.38;12.90;;;;;;;13.40;72.12;97154.13;5086757;28;20058;-75
2021/09/21 07:14:43;;;;;;;19.92;13.50;;;;;;;13.39;72.20;97147.03;5087198;28;20514;-74
2021/09/21 07:17:09;;;;;;;17.23;12.57;;;;;;;13.44;72.67;97150.44;5086994;28;20051;-74
2021/09/21 07:19:37;;;;;;;15.77;12.15;;;;;;;13.53;72.13;97155.94;5089242;28;20056;-75
2021/09/21 07:22:03;;;;;;;18.45;12.00;;;;;;;13.59;70.28;97162.88;5090261;28;20428;-74
2021/09/21 07:24:30;;;;;;;19.17;12.90;;;;;;;13.62;69.23;97159.50;5088893;28;20055;-76
2021/09/21 07:26:56;;;;;;;16.25;11.25;;;;;;;13.63;69.45;97158.38;5090437;28;20048;-76
2021/09/21 07:29:23;;;;;;;18.67;12.30;;;;;;;13.65;69.27;97155.31;5089527;28;20047;-75
2021/09/21 07:31:50;;;;;;;21.85;11.88;;;;;;;13.65;69.33;97156.13;5089733;28;20139;-74
2021/09/21 07:34:16;;;;;;;19.35;12.70;;;;;;;13.65;68.70;97166.28;5089883;28;20503;-74
2021/09/21 07:36:44;;;;;;;17.17;11.60;;;;;;;13.65;69.07;97169.81;5090938;28;20044;-76
2021/09/21 07:39:11;;;;;;;19.35;12.20;;;;;;;13.70;69.22;97175.13;5089948;28;20055;-75
2021/09/21 07:41:38;;;;;;;17.17;12.10;;;;;;;13.77;69.16;97178.22;5090672;28;20063;-74
2021/09/21 07:44:04;;;;;;;16.75;11.23;;;;;;;13.83;66.61;97190.66;5089904;28;20044;-76
2021/09/21 07:46:31;;;;;;;17.90;11.20;;;;;;;13.87;66.22;97187.25;5090162;28;20411;-75
2021/09/21 07:48:57;;;;;;;16.08;10.80;;;;;;;13.90;66.65;97189.38;5090136;28;20414;-75
2021/09/21 07:51:24;;;;;;;13.68;10.55;;;;;;;13.92;66.75;97181.63;5089945;28;20625;-76
2021/09/21 07:53:52;;;;;;;14.60;10.93;;;;;;;13.89;66.62;97188.56;5089904;28;20601;-75
2021/09/21 07:56:18;;;;;;;14.82;11.35;;;;;;;13.96;66.67;97197.09;5089724;28;20056;-75
2021/09/21 07:58:45;;;;;;;15.82;10.52;;;;;;;14.02;65.88;97198.56;5089870;28;20588;-75
2021/09/21 08:01:11;;;;;;;13.23;10.05;;;;;;;14.04;64.92;97209.19;5089720;28;20047;-75
2021/09/21 08:03:38;;;;;;;14.23;10.02;;;;;;;14.06;66.15;97215.97;5089974;28;20764;-77
2021/09/21 08:06:04;;;;;;;13.65;9.90;;;;;;;14.10;64.63;97227.91;5089603;28;20392;-74
2021/09/21 08:08:31;;;;;;;15.13;9.80;;;;;;;14.18;63.49;97228.22;5088987;28;20063;-75
2021/09/21 08:11:01;;;;;;;14.15;9.60;;;;;;;14.24;63.61;97235.97;5088761;28;20052;-74
2021/09/21 08:13:29;;;;;;;13.70;9.50;;;;;;;14.25;63.51;97231.28;5088562;28;20584;-76
2021/09/21 08:15:56;;;;;;;14.75;8.98;;;;;;;14.26;63.57;97225.50;5090093;28;20055;-75
2021/09/21 08:18:23;;;;;;;13.93;8.27;;;;;;;14.29;63.28;97222.13;5089209;28;20051;-75
2021/09/21 08:20:49;;;;;;;12.77;9.18;;;;;;;14.36;62.64;97224.41;5089920;28;20052;-75
2021/09/21 08:23:15;;;;;;;16.02;9.70;;;;;;;14.44;62.60;97225.53;5088998;28;20450;-75
2021/09/21 08:25:42;;;;;;;13.75;9.20;;;;;;;14.44;62.63;97209.09;5089555;28;20414;-76
2021/09/21 08:28:10;;;;;;;14.13;10.13;;;;;;;14.51;62.91;97231.34;5089220;28;20048;-74
2021/09/21 08:30:37;;;;;;;13.25;9.75;;;;;;;14.56;62.49;97225.72;5089402;28;20052;-75
2021/09/21 08:33:04;;;;;;;14.95;9.70;;;;;;;14.67;61.15;97239.91;5089356;28;20078;-75
2021/09/21 08:35:30;;;;;;;12.50;8.73;;;;;;;14.72;60.26;97232.34;5089452;28;20048;-76
2021/09/21 08:37:58;;;;;;;13.18;9.57;;;;;;;14.82;58.87;97231.19;5089777;28;20044;-75
2021/09/21 08:40:25;;;;;;;13.70;8.88;;;;;;;14.92;59.08;97238.28;5088874;28;20044;-75
2021/09/21 08:42:52;;;;;;;15.60;9.35;;;;;;;14.98;60.08;97234.22;5089464;28;20051;-75
2021/09/21 08:45:20;;;;;;;12.10;9.48;;;;;;;15.11;59.34;97236.00;5088540;28;20074;-75
2021/09/21 08:47:47;;;;;;;13.82;9.13;;;;;;;15.32;59.11;97238.84;5089503;28;20071;-76
2021/09/21 08:50:14;;;;;;;13.30;9.13;;;;;;;15.42;58.59;97238.50;5088584;28;20063;-76
2021/09/21 08:52:42;;;;;;;12.32;8.73;;;;;;;15.54;57.57;97246.03;5089214;28;20494;-75
2021/09/21 08:55:10;;;;;;;14.57;9.20;;;;;;;15.77;57.03;97250.19;5088411;28;20071;-74
2021/09/21 08:57:37;;;;;;;8.93;6.88;;;;;;;15.95;55.54;97245.41;5089009;28;20620;-76
2021/09/21 09:00:05;;;;;;;12.05;8.30;;;;;;;16.10;55.42;97246.81;5088694;28;20075;-75
2021/09/21 09:02:34;;;;;;;11.40;7.40;;;;;;;16.15;52.77;97257.59;5088865;28;20052;-74
2021/09/21 09:05:04;;;;;;;9.75;7.03;;;;;;;16.17;51.37;97258.88;5088979;28;20101;-76
2021/09/21 09:07:36;;;;;;;10.85;7.30;;;;;;;16.18;51.07;97252.25;5088416;28;20475;-75
2021/09/21 09:10:05;;;;;;;12.00;7.03;;;;;;;16.23;50.23;97259.47;5088614;28;20787;-76
2021/09/21 09:12:35;;;;;;;9.80;7.15;;;;;;;16.33;51.26;97253.59;5088966;28;20055;-76
2021/09/21 09:15:09;;;;;;;9.48;6.45;;;;;;;16.47;52.48;97263.56;5088469;28;20071;-72
2021/09/21 09:17:38;;;;;;;9.38;6.60;;;;;;;16.61;51.22;97272.34;5088621;28;20494;-76
2021/09/21 09:20:06;;;;;;;8.98;6.53;;;;;;;16.59;49.78;97269.91;5087982;28;20051;-74
2021/09/21 09:22:32;;;;;;;9.02;5.90;;;;;;;16.50;47.45;97277.44;5088592;28;20052;-76
2021/09/21 09:25:01;;;;;;;10.20;7.32;;;;;;;16.48;48.67;97276.16;5088546;28;20052;-76
2021/09/21 09:27:38;;;;;;;11.13;6.80;;;;;;;16.48;49.97;97265.16;5088355;28;20064;-74
2021/09/21 09:30:08;;;;;;;9.43;6.75;;;;;;;16.53;48.44;97278.69;5088035;28;20139;-75
2021/09/21 09:32:47;;;;;;;12.80;7.00;;;;;;;16.50;50.59;97271.94;5088319;28;20052;-74
2021/09/21 09:35:23;;;;;;;11.60;6.45;;;;;;;16.46;48.06;97281.19;5087761;28;20711;-74
2021/09/21 09:37:51;;;;;;;8.35;6.15;;;;;;;16.39;46.42;97282.53;5088286;28;20051;-73
2021/09/21 09:40:17;;;;;;;12.77;6.65;;;;;;;16.31;48.24;97280.63;5087713;28;20066;-74
2021/09/21 09:42:45;;;;;;;10.13;6.15;;;;;;;16.16;48.31;97268.25;5085550;28;20040;-75
2021/09/21 09:45:13;;;;;;;10.00;6.45;;;;;;;16.19;48.31;97272.28;5087406;28;20051;-75
2021/09/21 09:47:49;;;;;;;8.48;6.97;;;;;;;16.23;49.31;97278.72;5086531;28;20062;-75
2021/09/21 09:50:17;;;;;;;8.80;6.97;;;;;;;16.30;51.22;97273.53;5087471;28;20097;-75
2021/09/21 09:52:43;;;;;;;9.25;6.55;;;;;;;16.43;49.03;97272.44;5087902;28;20052;-76
2021/09/21 09:55:10;;;;;;;9.70;6.40;;;;;;;16.54;48.36;97272.88;5086300;28;20048;-73
2021/09/21 09:57:42;;;;;;;8.90;6.28;;;;;;;16.54;46.28;97272.06;5087707;28;20048;-74
2021/09/21 10:00:09;;;;;;;7.07;5.80;;;;;;;16.62;49.58;97273.97;5087149;28;20051;-74
2021/09/21 10:02:36;;;;;;;7.75;5.90;;;;;;;16.73;48.94;97275.19;5087582;28;20047;-75
2021/09/21 10:05:05;;;;;;;11.65;6.70;;;;;;;16.81;46.16;97270.75;5087125;28;20113;-73
2021/09/21 10:07:32;;;;;;;7.00;5.78;;;;;;;16.87;46.28;97267.47;5087045;28;20051;-75
2021/09/21 10:09:59;;;;;;;7.65;6.10;;;;;;;16.91;46.98;97265.69;5086674;28;20056;-75
2021/09/21 10:12:26;;;;;;;6.88;5.03;;;;;;;17.11;46.55;97268.72;5086734;28;20048;-74
2021/09/21 10:14:52;;;;;;;8.60;6.25;;;;;;;17.23;45.96;97268.78;5087847;28;20048;-75
2021/09/21 10:17:24;;;;;;;7.97;5.07;;;;;;;17.37;45.87;97268.47;5087109;28;20052;-75
2021/09/21 10:19:56;;;;;;;7.40;5.53;;;;;;;17.17;43.38;97264.59;5087458;28;20068;-75
2021/09/21 10:22:27;;;;;;;12.05;6.05;;;;;;;17.15;47.49;97278.72;5087400;28;20064;-75
2021/09/21 10:24:54;;;;;;;9.50;5.80;;;;;;;17.05;45.13;97275.56;5087298;28;20481;-74
2021/09/21 10:27:22;;;;;;;8.27;6.13;;;;;;;17.07;47.54;97278.78;5087245;28;20048;-75
2021/09/21 10:29:57;;;;;;;8.90;6.10;;;;;;;17.14;47.82;97279.06;5087495;28;20537;-75
2021/09/21 10:32:25;;;;;;;11.50;6.60;;;;;;;17.20;46.66;97277.69;5087204;28;20400;-75
2021/09/21 10:34:51;;;;;;;8.70;5.72;;;;;;;17.25;45.74;97277.50;5086167;28;20052;-74
2021/09/21 10:37:19;;;;;;;7.95;6.05;;;;;;;17.29;44.79;97281.19;5086536;28;20761;-74
2021/09/21 10:39:47;;;;;;;10.00;6.72;;;;;;;17.30;46.92;97276.47;5087407;28;20055;-77
2021/09/21 10:42:21;;;;;;;12.23;7.10;;;;;;;17.31;44.86;97278.09;5086489;28;20052;-74
2021/09/21 10:44:50;;;;;;;7.95;6.60;;;;;;;17.37;46.87;97277.53;5087170;28;20052;-76
2021/09/21 10:47:21;;;;;;;9.95;7.13;;;;;;;17.36;45.69;97281.44;5086779;28;20095;-77
2021/09/21 10:49:47;;;;;;;9.82;6.53;;;;;;;17.31;45.98;97295.41;5086933;28;20051;-76
2021/09/21 10:52:16;;;;;;;9.32;6.28;;;;;;;17.34;46.94;97299.44;5086990;28;20059;-76
2021/09/21 10:54:44;;;;;;;8.95;7.05;;;;;;;17.25;44.07;97294.00;5089263;28;20052;-76
2021/09/21 10:57:17;;;;;;;8.40;6.28;;;;;;;17.10;45.19;97289.94;5090401;28;20059;-75
2021/09/21 10:59:52;;;;;;;;;;;;;;;17.10;45.12;97298.19;5091250;28;20056;-77
2021/09/21 11:02:21;;;;;;;10.35;6.90;;;;;;;17.05;46.44;97294.84;5090411;28;20145;-76
2021/09/21 11:04:47;;;;;;;8.70;6.72;;;;;;;17.00;47.12;97290.34;5091011;28;20056;-76
2021/09/21 11:07:15;;;;;;;10.30;6.70;;;;;;;17.06;45.44;97279.94;5090580;28;20048;-76
2021/09/21 11:09:42;;;;;;;10.45;7.50;;;;;;;17.07;47.89;97289.78;5090817;28;20577;-75
2021/09/21 11:12:10;;;;;;;8.55;6.88;;;;;;;17.10;46.20;97280.88;5090361;28;20054;-77
2021/09/21 11:14:40;;;;;;;7.45;6.15;;;;;;;17.11;47.78;97291.53;5089793;28;20059;-77
2021/09/21 11:17:07;;;;;;;10.40;6.53;;;;;;;17.23;48.40;97288.06;5089523;28;20350;-75
2021/09/21 11:19:35;;;;;;;9.45;6.57;;;;;;;17.29;47.76;97294.94;5090453;28;20150;-74
2021/09/21 11:22:05;;;;;;;8.68;6.53;;;;;;;17.30;46.87;97285.53;5090176;28;20048;-76
2021/09/21 11:24:32;;;;;;;8.65;6.45;;;;;;;17.35;48.66;97293.59;5090406;28;20133;-75
2021/09/21 11:27:00;;;;;;;8.70;6.40;;;;;;;17.34;47.51;97299.44;5090443;28;20048;-75
2021/09/21 11:29:27;;;;;;;10.48;7.15;;;;;;;17.22;43.90;97280.91;5090142;28;20044;-74